Time;durP1;ratioP1;P1;durP2;ratioP2;P2;SDS_P1;SDS_P2;PMS_P1;PMS_P2;Temp;Humidity;BMP_temperature;BMP_pressure;BME280_temperature;BME280_humidity;BME280_pressure;Samples;Min_cycle;Max_cycle;Signal;HPM_P1;HPM_P2
2021/08/29 00:00:52;;;;;;;7.65;6.85;;;;;;;16.57;75.44;99759.75;1677274;85;21565;-72
2021/08/29 00:03:19;;;;;;;15.50;7.45;;;;;;;16.51;75.83;99762.80;1673405;84;21504;-71
2021/08/29 00:05:45;;;;;;;8.68;7.87;;;;;;;16.48;75.99;99766.91;1673641;85;21051;-71
2021/08/29 00:08:11;;;;;;;7.95;7.17;;;;;;;16.46;76.19;99771.80;1673575;85;21071;-71
2021/08/29 00:10:39;;;;;;;6.97;6.28;;;;;;;16.42;76.32;99772.13;1666160;85;21054;-71
2021/08/29 00:13:07;;;;;;;7.25;6.55;;;;;;;16.41;76.38;99771.04;1689850;85;21549;-71
2021/08/29 00:15:33;;;;;;;7.87;6.40;;;;;;;16.41;76.27;99767.78;1689733;84;21615;-68
2021/08/29 00:17:59;;;;;;;6.62;6.03;;;;;;;16.44;76.40;99769.12;1689109;85;21101;-70
2021/08/29 00:20:25;;;;;;;9.28;6.70;;;;;;;16.43;76.17;99764.24;1690563;83;21040;-72
2021/08/29 00:22:52;;;;;;;10.85;9.80;;;;;;;16.45;76.01;99772.89;1685277;83;21901;-70
2021/08/29 00:25:18;;;;;;;8.68;7.85;;;;;;;16.47;75.91;99769.36;1694282;83;20984;-71
2021/08/29 00:27:46;;;;;;;8.95;7.92;;;;;;;16.45;75.91;99770.18;1716773;83;21524;-73
2021/08/29 00:30:13;;;;;;;9.65;8.68;;;;;;;16.43;76.23;99753.93;1693405;83;21505;-73
2021/08/29 00:32:41;;;;;;;12.18;10.20;;;;;;;16.33;76.77;99752.67;1713218;83;21059;-72
2021/08/29 00:35:07;;;;;;;16.10;12.13;;;;;;;16.31;76.83;99752.94;1691386;83;21033;-73
2021/08/29 00:37:34;;;;;;;12.98;9.65;;;;;;;16.32;77.02;99764.61;1665627;85;21497;-73
2021/08/29 00:40:03;;;;;;;12.00;8.60;;;;;;;16.33;76.97;99777.09;1689107;85;22103;-73
2021/08/29 00:42:31;;;;;;;10.90;8.53;;;;;;;16.30;76.92;99777.13;1689328;85;21564;-71
2021/08/29 00:44:57;;;;;;;9.63;8.63;;;;;;;16.23;76.94;99782.06;1688734;85;21059;-72
2021/08/29 00:47:24;;;;;;;9.93;8.43;;;;;;;16.14;77.23;99775.09;1689314;83;21800;-72
2021/08/29 00:49:50;;;;;;;8.73;7.83;;;;;;;16.05;77.78;99769.20;1689194;85;21046;-72
2021/08/29 00:52:19;;;;;;;10.38;9.38;;;;;;;16.00;78.04;99757.03;1689807;85;21072;-73
2021/08/29 00:54:46;;;;;;;18.23;12.37;;;;;;;15.93;78.65;99737.00;1709396;83;21075;-73
2021/08/29 00:57:12;;;;;;;16.93;15.28;;;;;;;15.89;78.84;99734.59;1716643;83;21271;-71
2021/08/29 00:59:42;;;;;;;16.35;14.53;;;;;;;15.86;79.30;99741.14;1700871;83;20972;-70
2021/08/29 01:02:12;;;;;;;21.30;14.50;;;;;;;15.82;79.38;99746.33;1689589;85;21510;-74
2021/08/29 01:04:57;;;;;;;15.63;13.95;;;;;;;15.81;79.59;99757.45;1688864;85;21125;-75
2021/08/29 01:07:39;;;;;;;19.82;15.40;;;;;;;15.78;79.79;99757.45;1688677;85;21096;-73
2021/08/29 01:10:11;;;;;;;18.15;16.30;;;;;;;15.69;80.34;99749.66;1676835;85;21069;-73
2021/08/29 01:12:39;;;;;;;19.05;17.07;;;;;;;15.57;81.00;99736.47;1661303;85;21165;-71
2021/08/29 01:15:06;;;;;;;19.12;16.93;;;;;;;15.50;81.32;99742.70;1665133;85;20975;-70
2021/08/29 01:17:36;;;;;;;22.15;18.25;;;;;;;15.47;81.38;99747.34;1664339;86;21060;-69
2021/08/29 01:20:23;;;;;;;19.27;17.15;;;;;;;15.48;81.39;99754.39;1665136;84;20980;-69
2021/08/29 01:22:50;;;;;;;17.75;13.25;;;;;;;15.50;81.56;99748.13;1660839;85;21560;-71
2021/08/29 01:25:24;;;;;;;15.60;13.93;;;;;;;15.49;81.67;99747.85;1660642;85;21192;-71
2021/08/29 01:28:03;;;;;;;23.57;17.32;;;;;;;15.49;81.74;99745.72;1647475;85;20995;-69
2021/08/29 01:30:29;;;;;;;20.70;15.75;;;;;;;15.47;81.90;99732.43;1649563;86;21344;-70
2021/08/29 01:32:56;;;;;;;19.65;15.32;;;;;;;15.36;82.31;99722.73;1663067;85;21521;-70
2021/08/29 01:35:23;;;;;;;20.90;14.98;;;;;;;15.32;82.73;99731.16;1672933;84;21178;-70
2021/08/29 01:37:57;;;;;;;19.17;17.20;;;;;;;15.31;82.82;99736.85;1638565;85;21239;-71
2021/08/29 01:40:24;;;;;;;21.42;16.65;;;;;;;15.31;82.80;99740.91;1657816;86;21046;-69
2021/08/29 01:42:50;;;;;;;24.02;18.55;;;;;;;15.31;82.93;99744.98;1638869;87;21038;-70
2021/08/29 01:45:16;;;;;;;24.70;17.73;;;;;;;15.33;83.10;99753.11;1638274;87;21078;-72
2021/08/29 01:47:46;;;;;;;19.77;16.35;;;;;;;15.37;83.17;99750.65;1639953;86;35974;-70
2021/08/29 01:50:14;;;;;;;19.70;16.07;;;;;;;15.42;83.15;99748.72;1614958;86;21112;-74
2021/08/29 01:52:42;;;;;;;13.62;10.98;;;;;;;15.48;82.98;99754.93;1613580;87;21554;-76
2021/08/29 01:55:26;;;;;;;;;;;;;;;15.52;82.82;99756.02;1522723;94;21104;-71
2021/08/29 01:57:57;;;;;;;14.30;12.20;;;;;;;15.55;82.65;99745.41;1599539;87;20160;-72
2021/08/29 02:00:25;;;;;;;17.95;12.63;;;;;;;15.53;82.61;99742.19;1639187;86;21633;-70
2021/08/29 02:02:52;;;;;;;22.05;11.68;;;;;;;15.52;82.60;99756.02;1638535;87;22079;-70
2021/08/29 02:05:19;;;;;;;15.80;11.40;;;;;;;15.48;82.67;99760.35;1614698;87;21035;-70
2021/08/29 02:07:48;;;;;;;17.45;12.28;;;;;;;15.50;82.85;99759.50;1638665;87;21632;-71
2021/08/29 02:10:22;;;;;;;19.77;10.68;;;;;;;15.51;82.76;99744.36;1641236;87;21083;-70
2021/08/29 02:12:55;;;;;;;13.75;10.75;;;;;;;15.52;82.87;99749.23;1663924;85;21026;-70
2021/08/29 02:15:29;;;;;;;14.55;9.88;;;;;;;15.51;82.97;99752.48;1639845;85;21525;-72
2021/08/29 02:17:55;;;;;;;;;;;;;;;15.50;82.90;99743.24;1691619;84;21006;-70
2021/08/29 02:20:24;;;;;;;14.00;9.00;;;;;;;15.45;83.00;99741.37;1663654;85;20161;-71
2021/08/29 02:22:51;;;;;;;14.40;9.75;;;;;;;15.43;83.21;99749.00;1692426;83;21033;-72
2021/08/29 02:25:17;;;;;;;14.13;9.80;;;;;;;15.39;83.32;99743.88;1642635;85;21056;-76
2021/08/29 02:27:46;;;;;;;10.53;8.63;;;;;;;15.41;83.48;99751.16;1688677;83;21272;-73
2021/08/29 02:30:13;;;;;;;17.20;9.58;;;;;;;15.42;83.49;99760.92;1688441;84;20999;-72
2021/08/29 02:32:42;;;;;;;11.90;8.20;;;;;;;15.44;83.62;99770.14;1688414;85;21095;-72
2021/08/29 02:35:09;;;;;;;14.93;9.30;;;;;;;15.48;83.55;99772.55;1688669;84;21042;-72
2021/08/29 02:37:38;;;;;;;12.40;10.23;;;;;;;15.45;83.50;99773.91;1646138;86;26445;-71
2021/08/29 02:40:09;;;;;;;13.88;10.38;;;;;;;15.47;83.60;99773.63;1667090;85;21517;-70
2021/08/29 02:42:36;;;;;;;12.70;8.85;;;;;;;15.52;83.64;99766.86;1659952;85;21533;-71
2021/08/29 02:45:08;;;;;;;18.45;10.08;;;;;;;15.54;83.46;99762.77;1671584;84;21067;-70
2021/08/29 02:47:35;;;;;;;14.75;9.98;;;;;;;15.54;83.35;99761.98;1668380;85;21205;-70
2021/08/29 02:50:01;;;;;;;14.53;10.43;;;;;;;15.53;83.26;99753.58;1675587;84;21561;-70
2021/08/29 02:52:28;;;;;;;15.63;9.10;;;;;;;15.50;83.29;99751.38;1642806;85;21936;-71
2021/08/29 02:54:55;;;;;;;11.93;9.68;;;;;;;15.52;83.10;99750.59;1666902;84;20957;-72
2021/08/29 02:57:22;;;;;;;16.27;11.88;;;;;;;15.51;82.83;99746.26;1695394;84;21021;-71
2021/08/29 02:59:51;;;;;;;9.23;7.10;;;;;;;15.50;82.75;99744.59;1686433;84;21051;-72
2021/08/29 03:02:17;;;;;;;6.53;5.17;;;;;;;15.43;82.73;99745.47;1690236;84;22187;-71
2021/08/29 03:04:44;;;;;;;5.50;4.17;;;;;;;15.39;82.84;99747.94;1690126;85;21151;-71
2021/08/29 03:07:11;;;;;;;4.15;3.58;;;;;;;15.35;82.97;99743.36;1714621;83;20956;-76
2021/08/29 03:09:38;;;;;;;4.30;3.90;;;;;;;15.34;83.02;99741.19;1694185;83;21070;-72
2021/08/29 03:12:10;;;;;;;8.45;4.37;;;;;;;15.33;82.98;99742.81;1692875;83;20996;-72
2021/08/29 03:14:57;;;;;;;6.25;5.33;;;;;;;15.34;83.07;99764.23;1677342;83;21086;-71
2021/08/29 03:17:24;;;;;;;3.85;3.27;;;;;;;15.33;82.92;99757.18;1686519;84;21042;-72
2021/08/29 03:19:55;;;;;;;3.62;2.80;;;;;;;15.39;82.88;99756.07;1650859;85;21537;-73
2021/08/29 03:22:24;;;;;;;6.65;3.60;;;;;;;15.48;82.24;99757.64;1688078;83;21071;-71
2021/08/29 03:24:52;;;;;;;5.67;4.15;;;;;;;15.56;82.13;99752.46;1688201;85;20987;-73
2021/08/29 03:27:19;;;;;;;7.80;4.80;;;;;;;15.61;81.82;99764.63;1688014;85;21185;-72
2021/08/29 03:29:47;;;;;;;7.08;4.70;;;;;;;15.60;81.81;99767.07;1688111;85;20996;-72
2021/08/29 03:32:14;;;;;;;7.50;5.08;;;;;;;15.66;81.85;99765.14;1687855;83;21092;-71
2021/08/29 03:34:40;;;;;;;7.67;4.90;;;;;;;15.66;81.76;99757.82;1691154;83;21126;-71
2021/08/29 03:37:07;;;;;;;6.65;5.47;;;;;;;15.62;81.91;99757.31;1701180;83;20997;-72
2021/08/29 03:39:35;;;;;;;6.20;5.20;;;;;;;15.57;82.24;99756.80;1692822;84;21059;-71
2021/08/29 03:42:02;;;;;;;4.67;4.25;;;;;;;15.50;82.47;99754.90;1687954;84;21361;-71
2021/08/29 03:44:30;;;;;;;5.87;5.25;;;;;;;15.49;82.68;99760.62;1688164;85;21589;-71
2021/08/29 03:46:57;;;;;;;5.53;5.03;;;;;;;15.49;82.88;99759.27;1687939;85;21025;-71
2021/08/29 03:49:28;;;;;;;6.33;5.47;;;;;;;15.48;82.92;99755.74;1661851;83;21071;-71
2021/08/29 03:51:55;;;;;;;12.00;7.95;;;;;;;15.50;83.09;99752.73;1671587;85;21552;-71
2021/08/29 03:54:22;;;;;;;11.73;7.50;;;;;;;15.50;83.17;99753.55;1655642;86;21744;-71
2021/08/29 03:56:49;;;;;;;9.80;8.35;;;;;;;15.52;83.15;99750.59;1677186;85;21023;-70
2021/08/29 03:59:18;;;;;;;10.05;7.33;;;;;;;15.52;83.14;99754.12;1664012;85;21043;-71
2021/08/29 04:01:44;;;;;;;6.72;6.00;;;;;;;15.48;83.14;99744.09;1691617;83;21696;-70
2021/08/29 04:04:12;;;;;;;5.47;4.97;;;;;;;15.51;83.10;99747.06;1688053;85;21111;-71
2021/08/29 04:06:39;;;;;;;6.78;4.30;;;;;;;15.51;83.00;99743.55;1688204;85;21062;-71
2021/08/29 04:09:07;;;;;;;4.85;4.42;;;;;;;15.53;82.94;99738.67;1688242;84;21497;-72
2021/08/29 04:11:34;;;;;;;4.95;3.80;;;;;;;15.54;82.84;99726.73;1669941;83;21538;-71
2021/08/29 04:14:01;;;;;;;4.50;3.92;;;;;;;15.60;82.76;99724.23;1666668;85;21533;-71
2021/08/29 04:16:30;;;;;;;3.35;2.67;;;;;;;15.64;82.56;99723.39;1664242;86;21095;-71
2021/08/29 04:18:59;;;;;;;3.65;3.35;;;;;;;15.67;82.51;99723.38;1639202;86;21570;-71
2021/08/29 04:21:25;;;;;;;4.70;4.17;;;;;;;15.70;82.34;99717.38;1660111;86;21001;-72
2021/08/29 04:23:52;;;;;;;6.47;4.35;;;;;;;15.66;82.60;99722.58;1647726;85;21580;-71
2021/08/29 04:26:19;;;;;;;6.55;5.28;;;;;;;15.68;82.58;99710.09;1625269;86;21027;-72
2021/08/29 04:28:46;;;;;;;4.95;4.45;;;;;;;15.74;82.30;99703.52;1647673;87;21080;-72
2021/08/29 04:31:16;;;;;;;6.78;5.70;;;;;;;15.76;82.29;99693.75;1629905;87;21073;-72
2021/08/29 04:33:47;;;;;;;11.78;5.12;;;;;;;15.80;82.35;99689.37;1651679;86;21048;-71
2021/08/29 04:36:24;;;;;;;7.72;5.03;;;;;;;15.84;82.28;99689.88;1653119;85;20990;-71
2021/08/29 04:38:50;;;;;;;6.15;4.35;;;;;;;15.91;81.88;99694.98;1690485;84;21650;-71
2021/08/29 04:41:18;;;;;;;6.25;4.53;;;;;;;15.95;81.53;99698.20;1616812;88;20991;-71
2021/08/29 04:43:45;;;;;;;5.35;4.20;;;;;;;15.96;81.29;99708.52;1642730;86;21118;-71
2021/08/29 04:46:14;;;;;;;7.65;5.20;;;;;;;15.95;81.12;99706.88;1624518;87;20990;-72
2021/08/29 04:48:41;;;;;;;4.97;4.47;;;;;;;15.94;81.13;99703.91;1649235;86;21043;-70
2021/08/29 04:51:09;;;;;;;4.22;3.70;;;;;;;15.95;81.23;99694.67;1646956;87;21583;-70
2021/08/29 04:53:37;;;;;;;6.05;3.75;;;;;;;16.02;81.40;99701.92;1654447;85;21560;-70
2021/08/29 04:56:04;;;;;;;6.62;4.62;;;;;;;16.07;81.40;99708.12;1661415;85;21691;-69
2021/08/29 04:58:31;;;;;;;11.55;7.50;;;;;;;16.08;81.13;99702.96;1640043;86;21072;-71
2021/08/29 05:00:57;;;;;;;10.10;6.75;;;;;;;16.12;80.90;99703.19;1643530;86;21050;-69
2021/08/29 05:03:23;;;;;;;12.33;8.50;;;;;;;16.16;80.81;99712.41;1651484;86;21066;-69
2021/08/29 05:05:51;;;;;;;15.75;9.58;;;;;;;16.19;80.88;99708.30;1617226;86;21071;-70
2021/08/29 05:08:17;;;;;;;21.57;12.07;;;;;;;16.25;80.60;99700.38;1640107;86;21180;-75
2021/08/29 05:10:45;;;;;;;17.17;11.68;;;;;;;16.37;80.27;99698.88;1663827;84;21056;-71
2021/08/29 05:13:13;;;;;;;16.15;9.40;;;;;;;16.49;79.44;99691.16;1632155;87;20933;-70
2021/08/29 05:15:42;;;;;;;13.90;9.75;;;;;;;16.60;79.08;99689.69;1688512;85;21032;-69
2021/08/29 05:18:08;;;;;;;9.35;6.78;;;;;;;16.68;78.45;99687.71;1688705;85;21149;-70
2021/08/29 05:20:37;;;;;;;8.58;4.95;;;;;;;16.76;77.97;99690.59;1688543;83;21586;-69
2021/08/29 05:23:22;;;;;;;6.05;5.22;;;;;;;16.86;77.85;99682.86;1662020;86;21495;-68
2021/08/29 05:26:00;;;;;;;11.45;5.50;;;;;;;16.93;77.64;99677.32;1637619;85;21552;-69
2021/08/29 05:28:26;;;;;;;6.37;4.40;;;;;;;16.99;76.84;99677.52;1662382;86;22217;-69
2021/08/29 05:30:53;;;;;;;7.85;3.45;;;;;;;17.08;76.26;99674.95;1681141;84;21036;-69
2021/08/29 05:33:19;;;;;;;5.45;3.37;;;;;;;17.11;75.65;99664.88;1694920;84;21216;-69
2021/08/29 05:35:46;;;;;;;6.65;2.77;;;;;;;17.15;75.84;99671.33;1663541;85;21035;-70
2021/08/29 05:38:13;;;;;;;3.02;2.45;;;;;;;17.19;75.98;99672.36;1599115;88;20999;-70
2021/08/29 05:40:58;;;;;;;4.28;3.42;;;;;;;17.24;75.88;99667.39;1622069;88;21044;-70
2021/08/29 05:43:26;;;;;;;4.03;2.87;;;;;;;17.31;75.82;99676.00;1617488;83;22159;-69
2021/08/29 05:45:53;;;;;;;4.03;3.17;;;;;;;17.40;75.80;99667.44;1650659;85;21554;-69
2021/08/29 05:48:19;;;;;;;4.05;3.65;;;;;;;17.47;75.62;99673.30;1688629;85;21571;-69
2021/08/29 05:50:46;;;;;;;3.75;3.45;;;;;;;17.50;75.62;99657.77;1688529;85;21000;-70
2021/08/29 05:53:12;;;;;;;5.45;3.72;;;;;;;17.55;75.64;99672.65;1698642;84;20982;-68
2021/08/29 05:55:41;;;;;;;8.05;3.50;;;;;;;17.55;75.64;99665.84;1703680;83;20947;-70
2021/08/29 05:58:08;;;;;;;3.02;2.75;;;;;;;17.61;75.59;99656.51;1689234;83;21053;-69
2021/08/29 06:00:37;;;;;;;3.85;3.30;;;;;;;17.66;74.81;99656.98;1689948;83;20929;-69
2021/08/29 06:03:04;;;;;;;3.05;2.77;;;;;;;17.72;74.58;99668.84;1689916;84;21005;-71
2021/08/29 06:05:30;;;;;;;3.40;3.15;;;;;;;17.77;74.25;99667.41;1689866;83;21629;-68
2021/08/29 06:08:01;;;;;;;12.35;4.60;;;;;;;17.82;73.77;99663.24;1642605;86;21036;-69
2021/08/29 06:10:29;;;;;;;6.50;4.17;;;;;;;17.82;73.49;99655.08;1668005;85;21796;-69
2021/08/29 06:12:55;;;;;;;8.23;3.67;;;;;;;17.84;73.25;99651.48;1659130;85;21013;-70
2021/08/29 06:15:21;;;;;;;5.45;3.47;;;;;;;17.84;73.26;99650.13;1636373;86;21013;-71
2021/08/29 06:17:49;;;;;;;5.03;3.15;;;;;;;17.89;73.03;99645.73;1667023;85;20973;-71
2021/08/29 06:20:15;;;;;;;4.08;3.67;;;;;;;17.91;72.97;99642.95;1637505;87;21050;-70
2021/08/29 06:22:42;;;;;;;5.53;4.12;;;;;;;17.97;72.90;99640.41;1685649;85;21022;-69
2021/08/29 06:25:23;;;;;;;5.47;3.35;;;;;;;18.04;72.58;99641.35;1574091;87;20960;-69
2021/08/29 06:28:08;;;;;;;2.87;2.67;;;;;;;18.06;72.02;99644.59;1624605;88;20943;-69
2021/08/29 06:30:39;;;;;;;2.80;2.52;;;;;;;18.07;71.72;99638.86;1602770;88;21545;-70
2021/08/29 06:33:25;;;;;;;2.85;2.65;;;;;;;18.12;71.27;99634.69;1647692;85;21056;-71
2021/08/29 06:35:55;;;;;;;2.22;2.02;;;;;;;18.15;70.75;99635.98;1615239;86;21170;-69
2021/08/29 06:38:23;;;;;;;2.92;2.05;;;;;;;18.17;71.03;99637.86;1661041;85;21004;-71
2021/08/29 06:40:49;;;;;;;2.33;2.10;;;;;;;18.21;70.85;99630.70;1658651;86;21016;-70
2021/08/29 06:43:15;;;;;;;4.03;2.22;;;;;;;18.25;70.39;99628.44;1652593;85;20956;-70
2021/08/29 06:45:47;;;;;;;2.50;2.20;;;;;;;18.33;70.30;99631.55;1660270;85;21125;-70
2021/08/29 06:48:30;;;;;;;4.12;2.25;;;;;;;18.36;70.30;99632.33;1607339;87;21114;-68
2021/08/29 06:51:14;;;;;;;2.98;2.33;;;;;;;18.39;70.00;99629.80;1635295;86;21168;-68
2021/08/29 06:53:59;;;;;;;4.03;2.72;;;;;;;18.41;69.98;99630.31;1668119;85;21036;-68
2021/08/29 06:56:44;;;;;;;3.75;3.35;;;;;;;18.44;69.68;99618.80;1622929;87;21073;-69
2021/08/29 06:59:12;;;;;;;3.50;2.33;;;;;;;18.48;69.37;99624.44;1634066;87;21040;-69
2021/08/29 07:01:38;;;;;;;3.30;2.35;;;;;;;18.54;69.28;99623.27;1645132;85;21126;-69
2021/08/29 07:04:05;;;;;;;3.92;2.30;;;;;;;18.60;69.34;99626.95;1664427;85;21042;-67
2021/08/29 07:06:31;;;;;;;4.28;2.67;;;;;;;18.67;68.76;99630.61;1674749;84;21020;-69
2021/08/29 07:09:16;;;;;;;2.67;2.25;;;;;;;18.76;68.25;99626.06;1672611;85;21533;-70
2021/08/29 07:11:42;;;;;;;3.05;2.70;;;;;;;18.82;68.20;99624.03;1677560;83;21528;-68
2021/08/29 07:14:26;;;;;;;2.87;2.15;;;;;;;18.92;68.35;99612.92;1644583;85;21056;-71
2021/08/29 07:16:53;;;;;;;6.60;2.10;;;;;;;19.05;67.58;99610.15;1678225;85;21518;-69
2021/08/29 07:19:19;;;;;;;3.20;2.90;;;;;;;19.08;65.75;99598.65;1678165;85;21000;-78
2021/08/29 07:22:04;;;;;;;3.15;2.70;;;;;;;19.12;66.04;99601.00;1664169;85;21091;-70
2021/08/29 07:24:49;;;;;;;3.22;2.77;;;;;;;19.18;65.92;99594.88;1644668;85;21547;-69
2021/08/29 07:27:20;;;;;;;3.00;2.80;;;;;;;19.24;65.67;99599.63;1634303;84;21081;-70
2021/08/29 07:30:07;;;;;;;5.03;3.37;;;;;;;19.26;65.31;99593.32;1682555;84;21601;-70
2021/08/29 07:32:38;;;;;;;3.08;2.77;;;;;;;19.28;65.51;99580.19;1664036;86;21165;-69
2021/08/29 07:35:06;;;;;;;3.45;3.02;;;;;;;19.31;65.44;99583.66;1641136;86;21576;-71
2021/08/29 07:37:32;;;;;;;4.62;3.87;;;;;;;19.34;65.65;99587.12;1639803;86;21671;-70
2021/08/29 07:40:00;;;;;;;7.70;3.02;;;;;;;19.38;65.69;99588.91;1641582;85;21593;-71
2021/08/29 07:42:26;;;;;;;3.27;2.90;;;;;;;19.41;65.74;99578.77;1658890;85;21546;-70
2021/08/29 07:44:53;;;;;;;3.58;3.27;;;;;;;19.45;65.65;99587.16;1672594;84;21000;-70
2021/08/29 07:47:22;;;;;;;3.70;2.95;;;;;;;19.51;65.78;99590.02;1678242;85;21051;-68
2021/08/29 07:49:49;;;;;;;4.00;3.40;;;;;;;19.56;65.75;99591.25;1678092;84;21072;-70
2021/08/29 07:52:15;;;;;;;5.65;4.95;;;;;;;19.63;65.95;99579.32;1650091;86;21122;-69
2021/08/29 07:54:46;;;;;;;4.87;3.77;;;;;;;19.70;66.20;99572.06;1661047;86;20993;-70
2021/08/29 07:57:23;;;;;;;3.92;2.87;;;;;;;19.78;66.08;99569.93;1628221;87;21019;-69
2021/08/29 07:59:50;;;;;;;4.70;3.20;;;;;;;19.85;66.10;99569.75;1626581;85;21047;-69
2021/08/29 08:02:16;;;;;;;3.72;3.08;;;;;;;19.86;66.51;99561.78;1665506;85;21096;-70
2021/08/29 08:05:01;;;;;;;3.00;2.67;;;;;;;19.93;66.05;99558.05;1653553;86;21359;-70
2021/08/29 08:07:42;;;;;;;4.70;3.02;;;;;;;19.98;66.08;99566.10;1664834;85;21028;-68
2021/08/29 08:10:14;;;;;;;8.78;3.77;;;;;;;20.03;66.27;99565.97;1612934;85;21109;-71
2021/08/29 08:12:45;;;;;;;3.85;3.33;;;;;;;20.11;65.99;99561.64;1656304;85;21056;-69
2021/08/29 08:15:14;;;;;;;3.22;2.92;;;;;;;20.22;66.37;99563.53;1647718;87;20996;-70
2021/08/29 08:17:41;;;;;;;4.40;3.67;;;;;;;20.22;66.37;99563.53;1649771;85;21146;-70
2021/08/29 08:20:09;;;;;;;5.95;3.90;;;;;;;20.28;66.09;99558.99;1623885;87;21108;-71
2021/08/29 08:22:37;;;;;;;3.00;2.80;;;;;;;20.38;66.23;99557.34;1646846;86;20996;-72
2021/08/29 08:25:20;;;;;;;;;;;;;;;20.50;66.02;99569.58;1646114;85;21505;-70
2021/08/29 08:28:05;;;;;;;3.55;3.00;;;;;;;20.60;65.68;99567.36;1645768;86;20134;-70
2021/08/29 08:30:50;;;;;;;3.67;3.00;;;;;;;20.71;65.29;99555.57;1660415;86;21172;-70
2021/08/29 08:33:19;;;;;;;3.33;2.87;;;;;;;20.84;65.24;99555.97;1643668;87;21041;-72
2021/08/29 08:35:59;;;;;;;4.45;3.02;;;;;;;20.97;65.03;99554.20;1644722;87;21517;-70
2021/08/29 08:38:44;;;;;;;5.78;3.02;;;;;;;21.09;64.90;99546.97;1647803;87;21063;-70
2021/08/29 08:41:24;;;;;;;3.08;2.72;;;;;;;21.23;64.75;99541.36;1646878;87;21548;-70
2021/08/29 08:44:09;;;;;;;3.33;3.02;;;;;;;21.33;64.14;99530.64;1647734;87;21816;-69
2021/08/29 08:46:55;;;;;;;3.52;3.08;;;;;;;21.41;63.98;99528.44;1648885;85;21117;-69
2021/08/29 08:49:26;;;;;;;5.78;3.70;;;;;;;21.56;63.13;99516.42;1605442;87;21588;-69
2021/08/29 08:52:19;;;;;;;11.03;3.95;;;;;;;21.56;63.13;99516.42;1639404;85;21555;-70
2021/08/29 08:55:05;;;;;;;4.47;3.05;;;;;;;21.62;62.96;99512.38;1660277;85;21055;-71
2021/08/29 08:57:34;;;;;;;4.65;3.85;;;;;;;21.64;63.08;99510.67;1675647;85;22246;-70
2021/08/29 09:00:12;;;;;;;6.15;4.22;;;;;;;21.66;63.77;99501.02;1629626;87;22184;-69
2021/08/29 09:02:57;;;;;;;3.90;3.35;;;;;;;21.73;62.65;99499.92;1647703;87;21076;-69
2021/08/29 09:05:25;;;;;;;3.42;3.00;;;;;;;21.82;61.19;99494.44;1641402;86;21102;-69
2021/08/29 09:07:58;;;;;;;3.55;3.25;;;;;;;21.90;60.67;99486.73;1659270;85;21008;-70
2021/08/29 09:10:26;;;;;;;3.40;3.08;;;;;;;21.98;60.20;99480.44;1682417;84;20993;-69
2021/08/29 09:13:06;;;;;;;4.25;3.00;;;;;;;22.05;58.34;99478.55;1684221;85;21020;-70
2021/08/29 09:15:34;;;;;;;3.50;3.20;;;;;;;22.07;57.68;99466.69;1671547;85;21000;-72
2021/08/29 09:18:01;;;;;;;3.58;3.27;;;;;;;22.10;57.55;99466.05;1689989;85;20951;-73
2021/08/29 09:20:41;;;;;;;3.37;2.95;;;;;;;22.14;57.10;99465.61;1645727;85;21139;-75
2021/08/29 09:23:12;;;;;;;3.95;3.65;;;;;;;22.15;57.37;99455.70;1670331;85;21490;-72
2021/08/29 09:25:45;;;;;;;3.62;3.33;;;;;;;22.25;57.41;99457.25;1696792;83;21082;-72
2021/08/29 09:28:15;;;;;;;4.22;3.80;;;;;;;22.34;57.55;99459.92;1724414;83;20944;-71
2021/08/29 09:30:46;;;;;;;7.62;3.75;;;;;;;22.44;57.18;99455.42;1706211;83;21020;-71
2021/08/29 09:33:13;;;;;;;4.67;3.30;;;;;;;22.55;57.28;99452.48;1705463;83;21016;-74
2021/08/29 09:35:39;;;;;;;4.33;3.20;;;;;;;22.67;57.02;99442.97;1713216;83;21566;-71
2021/08/29 09:38:14;;;;;;;4.70;4.22;;;;;;;22.76;56.95;99431.95;1667960;83;21002;-71
2021/08/29 09:40:45;;;;;;;5.87;3.75;;;;;;;22.88;57.14;99428.67;1655507;84;21058;-72
2021/08/29 09:43:13;;;;;;;3.92;3.62;;;;;;;23.01;57.09;99428.97;1712354;83;21046;-72
2021/08/29 09:45:43;;;;;;;8.05;4.15;;;;;;;23.12;56.83;99433.43;1686768;84;21020;-72
2021/08/29 09:48:29;;;;;;;9.70;5.90;;;;;;;23.24;56.66;99430.73;1671232;85;22046;-71
2021/08/29 09:51:13;;;;;;;4.45;4.00;;;;;;;23.35;56.50;99432.47;1673359;84;20974;-79
2021/08/29 09:53:43;;;;;;;4.33;3.92;;;;;;;23.43;56.27;99432.36;1673021;84;21045;-73
2021/08/29 09:56:30;;;;;;;4.35;3.77;;;;;;;23.49;56.30;99428.86;1570192;90;21059;-70
2021/08/29 09:59:14;;;;;;;4.72;4.22;;;;;;;23.59;55.98;99428.42;1644169;86;21004;-72
2021/08/29 10:01:57;;;;;;;;;;;;;;;23.72;56.53;99425.09;1707205;84;21159;-74
2021/08/29 10:04:30;;;;;;;9.20;4.97;;;;;;;23.89;56.10;99435.27;1673445;85;20123;-73
2021/08/29 10:07:17;;;;;;;6.67;4.03;;;;;;;23.95;55.67;99432.28;1650235;85;21100;-72
2021/08/29 10:09:46;;;;;;;4.80;4.40;;;;;;;24.00;55.44;99427.36;1648144;85;21024;-71
2021/08/29 10:12:14;;;;;;;4.87;4.40;;;;;;;24.03;55.14;99426.66;1663644;84;21081;-72
2021/08/29 10:14:42;;;;;;;12.70;5.55;;;;;;;24.07;55.50;99425.42;1656714;85;21399;-70
2021/08/29 10:17:13;;;;;;;5.42;4.90;;;;;;;24.11;55.71;99420.26;1650840;85;20956;-74
2021/08/29 10:19:57;;;;;;;6.62;4.90;;;;;;;24.22;55.45;99413.14;1647593;87;21067;-72
2021/08/29 10:22:26;;;;;;;5.80;5.20;;;;;;;24.29;55.34;99413.38;1637192;85;21197;-71
2021/08/29 10:24:53;;;;;;;5.92;4.15;;;;;;;24.39;55.64;99403.03;1619772;88;21077;-71
2021/08/29 10:27:19;;;;;;;4.47;4.08;;;;;;;24.52;54.60;99396.34;1619563;88;21231;-71
2021/08/29 10:29:53;;;;;;;4.62;4.22;;;;;;;24.59;54.71;99390.48;1656787;85;22232;-71
2021/08/29 10:32:27;;;;;;;4.80;4.40;;;;;;;24.66;54.33;99387.11;1559674;85;21040;-71
2021/08/29 10:34:59;;;;;;;4.85;4.05;;;;;;;24.67;54.39;99379.89;1583528;85;21035;-70
2021/08/29 10:37:26;;;;;;;4.70;4.15;;;;;;;24.68;54.49;99366.38;1669573;85;21040;-71
2021/08/29 10:40:15;;;;;;;4.33;3.90;;;;;;;24.67;54.55;99362.02;1636603;86;21475;-71
2021/08/29 10:42:47;;;;;;;5.50;4.35;;;;;;;24.71;55.01;99353.85;1663507;86;21034;-71
2021/08/29 10:45:19;;;;;;;10.80;4.85;;;;;;;24.78;54.74;99358.76;1660606;86;21060;-78
2021/08/29 10:48:01;;;;;;;6.53;4.62;;;;;;;24.87;54.74;99362.17;1622374;88;21015;-71
2021/08/29 10:50:48;;;;;;;7.67;4.10;;;;;;;24.99;54.69;99360.71;1664209;86;21522;-71
2021/08/29 10:53:35;;;;;;;7.15;4.87;;;;;;;25.15;54.10;99365.66;1644376;87;21057;-71
2021/08/29 10:56:18;;;;;;;8.83;4.90;;;;;;;25.28;54.04;99369.92;1647668;87;21104;-71
2021/08/29 10:58:48;;;;;;;6.67;5.35;;;;;;;25.36;53.70;99367.59;1641373;87;21509;-71
2021/08/29 11:01:37;;;;;;;8.03;4.92;;;;;;;25.48;53.46;99368.85;1647624;87;21088;-72
2021/08/29 11:04:23;;;;;;;6.60;5.10;;;;;;;25.55;53.22;99362.19;1578271;87;21072;-77
2021/08/29 11:06:58;;;;;;;7.97;5.80;;;;;;;25.67;52.68;99353.57;1652615;85;21165;-74
2021/08/29 11:09:43;;;;;;;4.97;4.50;;;;;;;25.74;52.56;99349.04;1651802;85;21029;-76
2021/08/29 11:12:22;;;;;;;5.03;4.53;;;;;;;25.82;52.04;99342.53;1673906;85;21004;-73
2021/08/29 11:14:59;;;;;;;5.67;5.17;;;;;;;25.89;52.33;99331.67;1651584;85;21066;-72
2021/08/29 11:17:30;;;;;;;6.50;5.90;;;;;;;26.03;51.94;99344.96;1636530;87;21097;-73
2021/08/29 11:20:09;;;;;;;5.83;5.25;;;;;;;26.12;51.37;99341.98;1689525;85;21203;-73
2021/08/29 11:22:45;;;;;;;9.13;6.08;;;;;;;26.13;51.37;99337.50;1689410;83;20992;-73
2021/08/29 11:25:32;;;;;;;6.25;5.65;;;;;;;26.13;51.52;99336.70;1585063;89;21556;-82
2021/08/29 11:28:04;;;;;;;6.20;5.62;;;;;;;26.12;51.54;99335.09;1590110;89;21115;-69
2021/08/29 11:30:41;;;;;;;6.65;6.05;;;;;;;26.08;51.90;99330.89;1574380;87;21500;-70
2021/08/29 11:33:17;;;;;;;10.43;5.65;;;;;;;26.08;51.99;99323.20;1642667;87;21181;-70
2021/08/29 11:35:51;;;;;;;12.75;6.25;;;;;;;26.09;52.07;99311.02;1654423;85;20984;-73
2021/08/29 11:38:38;;;;;;;14.33;5.62;;;;;;;26.15;52.25;99309.55;1665314;86;21047;-71
2021/08/29 11:41:16;;;;;;;7.55;6.05;;;;;;;26.23;52.36;99305.83;1664193;85;21075;-75
2021/08/29 11:43:48;;;;;;;8.65;6.00;;;;;;;26.29;51.82;99289.98;1688775;85;21054;-77
2021/08/29 11:46:30;;;;;;;7.60;6.12;;;;;;;26.38;51.55;99279.53;1717706;83;21133;-83
2021/08/29 11:49:16;;;;;;;7.58;6.80;;;;;;;26.45;51.20;99274.73;1708335;83;20855;-85
2021/08/29 11:51:49;;;;;;;13.15;7.33;;;;;;;26.54;51.21;99268.41;1685834;83;21111;-81